Time;durP1;ratioP1;P1;durP2;ratioP2;P2;SDS_P1;SDS_P2;PMS_P1;PMS_P2;Temp;Humidity;BMP_temperature;BMP_pressure;BME280_temperature;BME280_humidity;BME280_pressure;Samples;Min_cycle;Max_cycle;Signal;HPM_P1;HPM_P2
2022/06/16 00:00:29;;;;;;;4.10;2.30;;;16.40;99.90;;;;;;5015026;28;20171;-76
2022/06/16 00:02:55;;;;;;;3.07;2.70;;;16.40;99.90;;;;;;5014605;28;20465;-76
2022/06/16 00:05:24;;;;;;;3.30;3.10;;;16.40;99.90;;;;;;5014992;28;20472;-77
2022/06/16 00:07:50;;;;;;;3.80;2.53;;;16.30;99.90;;;;;;5016741;28;20187;-76
2022/06/16 00:10:17;;;;;;;3.57;2.60;;;16.30;99.90;;;;;;4999869;28;20500;-76
2022/06/16 00:12:43;;;;;;;3.00;2.80;;;16.30;99.90;;;;;;4998418;28;20253;-77
2022/06/16 00:15:12;;;;;;;2.47;2.03;;;16.20;99.90;;;;;;5014676;28;20821;-76
2022/06/16 00:17:37;;;;;;;5.57;2.27;;;16.10;99.90;;;;;;5014365;28;20408;-76
2022/06/16 00:20:07;;;;;;;3.33;2.43;;;16.10;99.90;;;;;;5003445;28;20422;-77
2022/06/16 00:22:33;;;;;;;4.23;3.50;;;16.10;99.90;;;;;;4995201;28;20426;-76
2022/06/16 00:24:59;;;;;;;2.77;2.60;;;16.10;99.90;;;;;;5013142;28;20470;-77
2022/06/16 00:27:25;;;;;;;3.30;3.00;;;16.10;99.90;;;;;;5014356;28;20413;-77
2022/06/16 00:29:50;;;;;;;3.43;3.13;;;16.10;99.90;;;;;;5013828;28;20224;-76
2022/06/16 00:32:16;;;;;;;3.10;2.80;;;16.00;99.90;;;;;;5012711;28;20225;-76
2022/06/16 00:34:41;;;;;;;3.67;2.17;;;16.10;99.90;;;;;;5013273;28;20190;-76
2022/06/16 00:37:07;;;;;;;3.10;2.90;;;16.00;99.90;;;;;;5014296;28;20187;-76
2022/06/16 00:39:33;;;;;;;2.80;2.60;;;16.00;99.90;;;;;;5014164;28;20210;-76
2022/06/16 00:42:20;;;;;;;4.13;2.87;;;16.00;99.90;;;;;;5014515;28;20573;-77
2022/06/16 00:44:50;;;;;;;3.13;2.33;;;15.90;99.90;;;;;;5012963;28;20193;-76
2022/06/16 00:47:21;;;;;;;3.27;2.67;;;15.90;99.90;;;;;;5014138;28;20511;-77
2022/06/16 00:49:49;;;;;;;4.53;2.80;;;15.90;99.90;;;;;;5014008;28;20464;-77
2022/06/16 00:52:19;;;;;;;3.13;2.83;;;15.90;99.90;;;;;;5014004;28;20479;-77
2022/06/16 00:55:02;;;;;;;3.30;2.30;;;15.90;99.90;;;;;;5014294;28;20421;-77
2022/06/16 00:57:38;;;;;;;9.03;4.10;;;15.90;99.90;;;;;;5013979;28;20925;-76
2022/06/16 02:33:06;;;;;;;3.50;3.20;;;14.90;99.90;;;;;;4680807;26;20497;-75
2022/06/16 02:35:59;;;;;;;3.33;3.13;;;14.80;99.90;;;;;;4992057;28;20505;-75
2022/06/16 02:38:45;;;;;;;5.47;3.50;;;14.80;99.90;;;;;;4992568;28;20201;-75
2022/06/16 02:41:29;;;;;;;9.00;3.60;;;14.80;99.90;;;;;;4981951;28;20431;-76
2022/06/16 02:44:20;;;;;;;5.60;3.77;;;14.70;99.90;;;;;;4989924;28;20414;-76
2022/06/16 02:47:09;;;;;;;4.43;3.80;;;14.70;99.90;;;;;;4973788;28;20415;-76
2022/06/16 02:49:54;;;;;;;3.53;3.33;;;14.70;99.90;;;;;;4969885;28;20449;-76
2022/06/16 02:52:34;;;;;;;4.23;3.80;;;14.70;99.90;;;;;;4972978;28;20962;-76
2022/06/16 02:55:27;;;;;;;3.40;3.10;;;14.60;99.90;;;;;;4985745;28;20889;-76
2022/06/16 02:57:58;;;;;;;3.20;3.00;;;14.70;99.90;;;;;;4994099;28;20472;-76
2022/06/16 03:00:29;;;;;;;4.30;3.90;;;14.60;99.90;;;;;;4996356;28;20421;-74
2022/06/16 03:02:55;;;;;;;8.90;4.00;;;14.70;99.90;;;;;;4995859;28;20460;-76
2022/06/16 03:05:20;;;;;;;4.17;3.77;;;14.60;99.90;;;;;;4995992;28;20989;-76
2022/06/16 03:07:46;;;;;;;4.13;3.80;;;14.60;99.90;;;;;;4996269;28;20197;-76
2022/06/16 03:10:50;;;;;;;4.30;3.90;;;14.50;99.90;;;;;;4996079;28;20218;-75
2022/06/16 03:13:00;;;;;;;5.27;4.30;;;14.60;99.90;;;;;;4996116;28;20739;-76
2022/06/16 03:15:26;;;;;;;4.70;4.30;;;14.50;99.90;;;;;;4995665;28;20537;-76
2022/06/16 03:17:51;;;;;;;4.27;3.97;;;14.50;99.90;;;;;;4996169;28;20204;-76
2022/06/16 03:20:17;;;;;;;5.73;4.53;;;14.50;99.90;;;;;;4994909;28;20238;-76
2022/06/16 03:22:42;;;;;;;4.97;4.50;;;14.50;99.90;;;;;;4976457;28;20199;-76
2022/06/16 03:25:10;;;;;;;5.03;4.70;;;14.50;99.90;;;;;;4989566;28;20686;-76
2022/06/16 03:27:36;;;;;;;6.30;4.90;;;14.50;99.90;;;;;;4983361;28;20510;-76
2022/06/16 03:30:02;;;;;;;6.63;5.10;;;14.50;99.90;;;;;;4977031;28;20428;-76
2022/06/16 03:32:27;;;;;;;7.20;4.30;;;14.50;99.90;;;;;;4990749;28;20231;-76
2022/06/16 03:34:53;;;;;;;4.80;4.30;;;14.50;99.90;;;;;;4986944;28;20206;-77
2022/06/16 03:37:18;;;;;;;5.07;4.60;;;14.50;99.90;;;;;;4985803;28;20242;-77
2022/06/16 03:39:44;;;;;;;5.77;4.93;;;14.50;99.90;;;;;;4995610;28;20195;-77
2022/06/16 03:42:09;;;;;;;5.63;5.23;;;14.50;99.90;;;;;;4995405;28;20297;-76
2022/06/16 03:44:35;;;;;;;5.90;5.20;;;14.60;99.90;;;;;;4995899;28;20274;-77
2022/06/16 03:47:00;;;;;;;5.50;5.00;;;14.60;99.90;;;;;;4990197;28;20615;-77
2022/06/16 03:49:26;;;;;;;4.87;4.50;;;14.60;99.90;;;;;;4976485;28;20180;-76
2022/06/16 03:51:51;;;;;;;7.50;4.70;;;14.60;99.90;;;;;;4978380;28;20215;-77
2022/06/16 03:54:17;;;;;;;8.67;4.60;;;14.70;99.90;;;;;;4995121;28;20229;-76
2022/06/16 03:56:42;;;;;;;6.63;5.97;;;14.80;99.90;;;;;;4995313;28;20225;-77
2022/06/16 03:59:08;;;;;;;9.83;5.60;;;14.80;99.90;;;;;;4991298;28;20180;-76
2022/06/16 04:01:34;;;;;;;5.83;5.33;;;14.90;99.90;;;;;;4995056;28;20226;-77
2022/06/16 04:03:59;;;;;;;5.80;5.30;;;15.00;99.90;;;;;;4986046;28;20938;-76
2022/06/16 04:06:25;;;;;;;6.73;5.40;;;15.20;99.90;;;;;;4995035;28;20222;-76
2022/06/16 04:08:51;;;;;;;5.50;5.00;;;15.30;99.90;;;;;;4982804;28;20184;-76
2022/06/16 04:11:29;;;;;;;5.83;4.77;;;15.50;99.90;;;;;;4993498;28;20446;-76
2022/06/16 04:13:57;;;;;;;6.60;4.63;;;15.70;99.90;;;;;;4985911;28;20234;-76
2022/06/16 04:16:23;;;;;;;5.20;4.70;;;15.80;99.90;;;;;;4993561;28;20449;-76
2022/06/16 04:18:49;;;;;;;6.83;4.73;;;16.00;99.90;;;;;;4986013;28;20992;-76
2022/06/16 04:21:14;;;;;;;5.50;4.27;;;16.10;99.90;;;;;;4975073;28;20435;-75
2022/06/16 04:23:41;;;;;;;4.73;4.33;;;16.20;99.90;;;;;;4979693;28;20187;-76
2022/06/16 04:26:07;;;;;;;5.00;4.60;;;16.40;99.90;;;;;;4993172;28;20198;-76
2022/06/16 04:28:32;;;;;;;5.53;5.00;;;16.40;99.90;;;;;;4994437;28;20427;-76
2022/06/16 04:30:58;;;;;;;5.00;4.57;;;16.60;99.90;;;;;;4994156;28;20203;-76
2022/06/16 04:33:24;;;;;;;9.60;5.23;;;16.70;99.90;;;;;;4992417;28;20209;-76
2022/06/16 04:35:50;;;;;;;4.93;4.47;;;16.90;99.90;;;;;;4991306;28;20426;-76
2022/06/16 04:38:16;;;;;;;7.77;4.07;;;17.00;99.90;;;;;;4994172;28;20230;-76
2022/06/16 04:40:41;;;;;;;4.70;4.03;;;17.10;99.90;;;;;;4993804;28;20434;-76
2022/06/16 04:43:07;;;;;;;5.43;4.23;;;17.30;99.90;;;;;;4994396;28;20262;-76
2022/06/16 04:45:33;;;;;;;5.63;4.47;;;17.40;99.90;;;;;;4994019;28;20217;-76
2022/06/16 04:47:58;;;;;;;4.03;3.63;;;17.50;99.90;;;;;;4994197;28;20636;-76
2022/06/16 04:50:24;;;;;;;7.03;5.00;;;17.70;99.90;;;;;;5009110;28;20183;-74
2022/06/16 04:52:49;;;;;;;4.70;4.30;;;17.80;99.90;;;;;;4993944;28;20211;-77
2022/06/16 04:55:16;;;;;;;4.60;4.20;;;18.00;99.90;;;;;;4988024;28;20199;-76
2022/06/16 04:57:42;;;;;;;4.77;4.30;;;18.20;99.90;;;;;;4973496;28;20187;-76
2022/06/16 05:00:11;;;;;;;4.43;4.10;;;18.40;99.90;;;;;;4974939;28;20974;-77
2022/06/16 05:02:37;;;;;;;4.13;3.73;;;19.10;99.90;;;;;;4974172;28;20803;-78
2022/06/16 05:05:02;;;;;;;9.83;4.50;;;20.00;99.90;;;;;;4976346;28;20419;-76
2022/06/16 05:07:28;;;;;;;4.63;4.33;;;20.10;99.90;;;;;;4980932;28;20187;-76
2022/06/16 05:09:54;;;;;;;4.57;4.10;;;20.50;99.90;;;;;;4984306;28;20322;-77
2022/06/16 05:12:19;;;;;;;4.43;4.13;;;20.60;99.90;;;;;;4975023;28;20692;-77
2022/06/16 05:14:45;;;;;;;4.33;3.67;;;21.30;99.90;;;;;;4974385;28;20256;-76
2022/06/16 05:17:10;;;;;;;5.50;4.93;;;22.80;99.90;;;;;;4982925;28;20187;-77
2022/06/16 05:19:36;;;;;;;6.20;4.67;;;24.30;99.90;;;;;;4974104;28;20176;-76
2022/06/16 05:22:05;;;;;;;761.83;52.50;;;26.00;99.90;;;;;;4982062;28;20675;-77
2022/06/16 05:24:31;;;;;;;4.73;4.33;;;26.50;99.90;;;;;;4990650;28;20191;-77
2022/06/16 05:26:57;;;;;;;365.63;39.97;;;27.70;99.90;;;;;;4991976;28;21026;-77
2022/06/16 05:29:23;;;;;;;7.00;4.43;;;28.10;99.90;;;;;;4993181;28;20785;-77
2022/06/16 05:31:48;;;;;;;212.17;21.53;;;28.20;99.90;;;;;;4985783;28;20479;-77
2022/06/16 05:34:14;;;;;;;4.43;4.13;;;29.00;99.90;;;;;;4981334;28;20179;-78
2022/06/16 05:36:40;;;;;;;5.10;4.10;;;28.90;99.90;;;;;;4974448;28;20449;-77
2022/06/16 05:39:06;;;;;;;4.60;4.20;;;27.90;99.90;;;;;;4972115;28;20180;-76
2022/06/16 05:41:32;;;;;;;6.23;4.10;;;26.90;99.90;;;;;;4990180;28;20438;-77
2022/06/16 05:43:57;;;;;;;8.73;3.80;;;26.00;99.90;;;;;;4990736;28;20277;-76
2022/06/16 05:46:23;;;;;;;4.50;4.10;;;25.20;99.90;;;;;;4993074;28;20246;-76
2022/06/16 05:48:52;;;;;;;6.03;3.97;;;24.50;99.90;;;;;;4990984;28;20537;-77
2022/06/16 05:51:18;;;;;;;4.83;4.43;;;24.00;99.90;;;;;;4992567;28;20434;-77
2022/06/16 05:53:45;;;;;;;7.07;4.10;;;23.60;99.90;;;;;;4978560;28;20481;-77
2022/06/16 05:56:12;;;;;;;4.47;4.17;;;23.30;99.90;;;;;;4987430;28;20831;-77
2022/06/16 05:58:38;;;;;;;4.57;4.27;;;23.10;99.90;;;;;;4973484;28;20438;-76
2022/06/16 06:01:04;;;;;;;8.83;5.83;;;23.30;99.90;;;;;;4992602;28;20541;-77
2022/06/16 06:03:29;;;;;;;6.33;4.90;;;23.40;99.90;;;;;;4984999;28;20195;-77
2022/06/16 06:05:55;;;;;;;6.90;4.97;;;23.10;99.90;;;;;;4973478;28;20255;-76
2022/06/16 06:16:39;;;;;;;7.80;4.67;;;23.60;99.90;;;;;;4993251;28;20406;-77
2022/06/16 06:19:23;;;;;;;4.43;4.03;;;23.30;99.90;;;;;;4991119;28;20513;-77
2022/06/16 06:22:02;;;;;;;4.13;3.83;;;23.70;99.90;;;;;;4973474;28;20443;-77
2022/06/16 06:24:46;;;;;;;4.63;3.47;;;24.40;99.90;;;;;;4976213;28;20438;-76
2022/06/16 06:27:17;;;;;;;4.13;3.63;;;25.20;99.90;;;;;;4992580;28;20422;-77
2022/06/16 06:29:45;;;;;;;4.50;4.10;;;25.90;99.90;;;;;;4983313;28;20435;-76
2022/06/16 06:32:12;;;;;;;4.87;3.70;;;26.60;99.90;;;;;;4988975;28;20851;-77
2022/06/16 06:34:38;;;;;;;3.47;3.00;;;27.10;99.90;;;;;;4988699;28;20418;-77
2022/06/16 06:37:05;;;;;;;4.10;3.70;;;27.40;99.90;;;;;;4996713;28;20413;-77
2022/06/16 06:39:31;;;;;;;6.07;3.80;;;27.40;99.90;;;;;;4991318;28;20274;-76
2022/06/16 06:41:56;;;;;;;5.63;4.37;;;27.60;99.90;;;;;;4977289;28;20542;-76
2022/06/16 06:44:22;;;;;;;4.73;3.63;;;27.60;99.90;;;;;;4978283;28;20562;-77
2022/06/16 06:46:48;;;;;;;6.97;4.60;;;27.70;99.90;;;;;;4996316;28;20171;-77
2022/06/16 06:49:13;;;;;;;4.00;3.80;;;27.80;99.90;;;;;;4995775;28;20644;-77
2022/06/16 06:51:40;;;;;;;3.70;3.27;;;27.90;99.90;;;;;;4983099;28;20204;-77
2022/06/16 06:54:06;;;;;;;4.13;3.83;;;27.80;99.90;;;;;;5008227;28;20324;-78
2022/06/16 06:56:32;;;;;;;4.07;3.70;;;27.80;99.90;;;;;;4989574;28;20610;-77
2022/06/16 06:59:02;;;;;;;3.57;3.37;;;27.90;99.90;;;;;;4996023;28;20703;-76
2022/06/16 07:01:28;;;;;;;4.50;3.83;;;28.40;99.90;;;;;;4995346;28;20489;-77
2022/06/16 07:03:54;;;;;;;3.60;3.37;;;28.90;99.90;;;;;;4995901;28;20446;-77
2022/06/16 07:06:20;;;;;;;3.80;3.43;;;28.90;99.90;;;;;;4995627;28;21002;-77
2022/06/16 07:08:46;;;;;;;4.10;3.70;;;28.60;99.90;;;;;;4995896;28;20587;-77
2022/06/16 07:11:13;;;;;;;4.07;3.27;;;28.60;99.90;;;;;;4984640;28;20282;-76
2022/06/16 07:13:40;;;;;;;3.60;3.40;;;28.80;99.90;;;;;;4976040;28;20489;-78
2022/06/16 07:16:06;;;;;;;7.80;3.90;;;29.30;99.90;;;;;;4975622;28;20467;-77
2022/06/16 07:18:32;;;;;;;5.60;3.37;;;29.40;99.90;;;;;;4995353;28;20413;-77
2022/06/16 07:20:57;;;;;;;3.87;3.60;;;29.20;99.90;;;;;;4994668;28;20513;-77
2022/06/16 07:23:23;;;;;;;4.93;3.93;;;29.00;99.90;;;;;;4991156;28;20218;-77
2022/06/16 07:25:50;;;;;;;5.67;3.87;;;29.00;99.90;;;;;;4993425;28;20267;-77
2022/06/16 07:28:17;;;;;;;4.03;3.67;;;29.20;99.90;;;;;;4991580;28;20266;-77
2022/06/16 07:30:43;;;;;;;3.97;3.53;;;29.50;99.90;;;;;;4995281;28;20596;-77
2022/06/16 07:33:09;;;;;;;3.90;3.50;;;29.50;99.90;;;;;;4990134;28;20473;-77
2022/06/16 07:35:36;;;;;;;3.57;3.20;;;29.90;99.90;;;;;;4991749;28;20469;-77
2022/06/16 07:38:02;;;;;;;4.83;3.67;;;29.90;99.90;;;;;;4993800;28;20437;-77
2022/06/16 07:40:28;;;;;;;4.30;3.90;;;29.60;99.90;;;;;;4983719;28;20453;-76
2022/06/16 07:42:56;;;;;;;3.70;3.40;;;29.70;99.90;;;;;;4982465;28;20454;-76
2022/06/16 07:45:23;;;;;;;8.60;4.53;;;29.70;99.90;;;;;;4994589;28;20510;-75
2022/06/16 07:47:50;;;;;;;4.83;4.27;;;30.00;99.90;;;;;;4995107;28;20411;-77
2022/06/16 07:50:16;;;;;;;6.13;4.07;;;29.90;99.90;;;;;;4994970;28;20757;-77
2022/06/16 07:52:41;;;;;;;5.33;4.83;;;29.50;99.90;;;;;;4993399;28;20479;-77
2022/06/16 07:55:08;;;;;;;4.60;4.20;;;29.30;99.90;;;;;;4979828;28;20307;-76
2022/06/16 07:57:40;;;;;;;5.63;4.27;;;29.30;99.90;;;;;;4975494;28;20556;-77
2022/06/16 08:00:07;;;;;;;6.57;4.67;;;29.40;99.90;;;;;;4993374;28;20545;-77
2022/06/16 08:02:33;;;;;;;4.73;4.30;;;29.30;99.90;;;;;;4994175;28;20442;-76
2022/06/16 08:04:58;;;;;;;5.50;4.80;;;29.20;99.90;;;;;;4998306;28;20442;-77
2022/06/16 08:07:24;;;;;;;4.87;4.40;;;29.40;99.90;;;;;;4994515;28;20215;-77
2022/06/16 08:09:50;;;;;;;5.53;4.70;;;29.80;99.90;;;;;;4988697;28;20188;-76
2022/06/16 08:12:16;;;;;;;7.20;4.93;;;30.20;99.90;;;;;;4994404;28;20207;-77
2022/06/16 08:14:44;;;;;;;6.43;5.00;;;30.80;99.90;;;;;;4983405;28;20506;-77
2022/06/16 08:17:16;;;;;;;5.50;4.63;;;31.10;99.90;;;;;;4975129;28;20418;-76
2022/06/16 08:19:41;;;;;;;4.17;3.87;;;31.60;99.90;;;;;;4974903;28;20435;-76
2022/06/16 08:22:07;;;;;;;4.40;4.00;;;31.60;99.90;;;;;;4974658;28;20450;-76
2022/06/16 08:24:33;;;;;;;6.40;3.40;;;31.20;99.90;;;;;;4978939;28;20190;-77
2022/06/16 08:27:00;;;;;;;5.20;3.70;;;31.80;99.90;;;;;;4976237;28;20196;-77
2022/06/16 08:29:26;;;;;;;7.00;3.70;;;31.60;99.70;;;;;;4975513;28;20191;-77
2022/06/16 08:31:52;;;;;;;3.87;3.47;;;30.60;99.40;;;;;;4974525;28;20451;-77
2022/06/16 08:34:17;;;;;;;6.83;4.43;;;29.70;99.70;;;;;;4984874;28;20461;-76
2022/06/16 08:36:43;;;;;;;3.93;3.40;;;29.50;99.50;;;;;;4992871;28;20179;-77
2022/06/16 08:39:10;;;;;;;8.73;3.80;;;29.00;99.70;;;;;;5007100;28;20271;-77
2022/06/16 08:42:09;;;;;;;4.80;4.30;;;29.40;99.60;;;;;;4974272;28;20274;-77
2022/06/16 08:44:39;;;;;;;8.33;3.87;;;30.10;99.00;;;;;;4974464;28;20524;-77
2022/06/16 08:47:28;;;;;;;6.13;3.70;;;30.10;98.50;;;;;;4985317;28;20514;-77
2022/06/16 08:50:02;;;;;;;3.80;3.50;;;30.70;99.90;;;;;;4981431;28;20501;-77
2022/06/16 08:52:33;;;;;;;4.07;3.60;;;31.50;97.60;;;;;;4993215;28;20449;-77
2022/06/16 08:55:19;;;;;;;8.37;4.20;;;32.10;97.40;;;;;;4985107;28;20435;-77
2022/06/16 08:57:48;;;;;;;4.67;4.27;;;31.70;97.20;;;;;;4993500;28;20410;-77
2022/06/16 09:00:20;;;;;;;10.77;3.63;;;32.30;97.40;;;;;;5007633;28;20414;-77
2022/06/16 09:02:55;;;;;;;4.67;3.30;;;32.60;95.80;;;;;;4993364;28;20453;-77
2022/06/16 09:05:47;;;;;;;6.13;4.07;;;32.70;96.30;;;;;;4993144;28;20962;-77
2022/06/16 09:08:50;;;;;;;7.13;4.90;;;33.00;94.80;;;;;;4987272;28;20430;-77
2022/06/16 09:11:38;;;;;;;4.10;3.70;;;33.20;95.60;;;;;;4987137;28;20497;-77
2022/06/16 09:17:58;;;;;;;4.37;3.93;;;33.90;96.20;;;;;;4989208;28;20474;-78
2022/06/16 09:20:53;;;;;;;5.97;4.30;;;33.40;96.60;;;;;;4993513;28;20430;-76
2022/06/16 09:24:14;;;;;;;5.40;3.87;;;33.70;96.40;;;;;;4988998;28;20884;-76
2022/06/16 09:26:59;;;;;;;4.87;4.07;;;34.00;95.10;;;;;;4930744;29;20448;-77
2022/06/16 09:29:33;;;;;;;5.23;4.10;;;34.10;94.00;;;;;;4987753;28;20946;-76
2022/06/16 09:32:08;;;;;;;4.23;3.93;;;33.80;94.60;;;;;;4988905;28;20811;-78
2022/06/16 09:34:54;;;;;;;4.20;3.80;;;33.90;94.20;;;;;;4988549;28;20419;-77
2022/06/16 09:37:35;;;;;;;5.93;3.40;;;34.20;93.90;;;;;;4978041;28;20504;-77
2022/06/16 09:40:17;;;;;;;4.80;4.00;;;34.20;92.50;;;;;;4993304;28;20529;-77
2022/06/16 09:42:58;;;;;;;6.80;3.60;;;34.30;93.90;;;;;;4990660;28;20470;-77
2022/06/16 09:45:32;;;;;;;7.23;4.27;;;34.20;93.60;;;;;;4992950;28;20497;-77
2022/06/16 09:48:36;;;;;;;4.17;3.87;;;34.30;93.30;;;;;;4992920;28;20538;-77
2022/06/16 09:51:08;;;;;;;7.30;3.90;;;34.30;93.10;;;;;;4967525;28;20510;-77
2022/06/16 09:53:46;;;;;;;4.67;3.50;;;34.00;93.10;;;;;;4980546;28;20540;-77
2022/06/16 09:56:33;;;;;;;3.93;3.63;;;34.10;93.70;;;;;;4992396;28;20974;-77
2022/06/16 09:59:08;;;;;;;4.57;3.63;;;34.00;93.20;;;;;;4988824;28;20592;-76
2022/06/16 10:01:58;;;;;;;7.03;3.93;;;34.50;93.60;;;;;;4988035;28;20505;-77
2022/06/16 10:04:24;;;;;;;4.33;3.70;;;34.50;94.00;;;;;;4981319;28;20438;-77
2022/06/16 10:07:15;;;;;;;6.00;3.67;;;34.80;93.60;;;;;;4992753;28;20500;-78
2022/06/16 10:10:07;;;;;;;5.10;3.47;;;34.30;92.40;;;;;;4984080;28;20265;-77
2022/06/16 10:13:03;;;;;;;4.97;3.90;;;34.10;92.60;;;;;;4992374;28;20458;-77
2022/06/16 10:15:51;;;;;;;4.97;3.63;;;34.10;93.50;;;;;;4976139;28;20442;-77
2022/06/16 10:18:17;;;;;;;4.37;3.53;;;34.00;92.50;;;;;;4973163;28;20781;-76
2022/06/16 10:20:44;;;;;;;4.60;3.47;;;33.90;92.80;;;;;;4988659;28;20439;-77
2022/06/16 10:23:31;;;;;;;4.20;3.80;;;33.80;93.20;;;;;;4992537;28;20441;-78
2022/06/16 10:26:02;;;;;;;4.40;3.80;;;33.90;93.70;;;;;;4991327;28;20969;-77
2022/06/16 10:28:52;;;;;;;9.00;3.83;;;34.30;93.20;;;;;;4992190;28;20522;-77
2022/06/16 10:31:35;;;;;;;3.30;3.00;;;33.90;92.90;;;;;;4971537;28;20475;-76
2022/06/16 10:34:01;;;;;;;7.60;3.30;;;33.70;93.10;;;;;;4974561;28;20499;-77
2022/06/16 10:36:28;;;;;;;4.20;3.80;;;33.60;94.50;;;;;;4973545;28;20444;-77
2022/06/16 10:39:15;;;;;;;5.70;3.77;;;33.70;93.10;;;;;;4973066;28;20810;-79
2022/06/16 10:42:05;;;;;;;3.83;2.93;;;34.00;92.40;;;;;;4986512;28;20809;-77
2022/06/16 10:44:33;;;;;;;6.73;3.73;;;34.30;93.10;;;;;;4992151;28;20417;-77
2022/06/16 10:47:03;;;;;;;5.50;3.10;;;34.60;93.30;;;;;;4990357;28;20473;-77
2022/06/16 10:49:35;;;;;;;3.10;2.80;;;34.70;92.20;;;;;;4992202;28;20903;-77
2022/06/16 10:52:06;;;;;;;3.70;3.40;;;34.80;93.30;;;;;;4984313;28;20451;-77
2022/06/16 10:54:35;;;;;;;2.93;2.73;;;35.10;91.60;;;;;;4974580;28;20939;-77
2022/06/16 10:57:17;;;;;;;7.10;3.47;;;34.50;91.50;;;;;;4985223;28;20469;-77
2022/06/16 10:59:54;;;;;;;3.40;3.10;;;34.70;91.20;;;;;;4992379;28;20418;-77
2022/06/16 11:02:31;;;;;;;3.30;3.00;;;34.50;91.80;;;;;;4987783;28;20849;-77
2022/06/16 11:05:13;;;;;;;3.33;3.03;;;34.40;92.30;;;;;;4992325;28;20473;-77
2022/06/16 11:07:41;;;;;;;4.73;3.43;;;34.20;92.40;;;;;;4991719;28;20448;-77
2022/06/16 11:10:30;;;;;;;4.10;3.60;;;34.40;91.50;;;;;;4989191;28;20478;-77
2022/06/16 11:12:56;;;;;;;5.60;3.47;;;34.10;92.20;;;;;;4983712;28;20471;-77
2022/06/16 11:15:29;;;;;;;3.93;3.70;;;33.70;92.70;;;;;;4972614;28;20494;-77
2022/06/16 11:17:58;;;;;;;3.87;3.53;;;33.70;91.80;;;;;;4982841;28;20931;-77
2022/06/16 11:20:34;;;;;;;4.10;3.80;;;33.60;91.80;;;;;;4995128;28;20417;-74
2022/06/16 11:23:00;;;;;;;4.33;3.50;;;33.30;91.70;;;;;;4982934;28;20466;-77
2022/06/16 11:25:36;;;;;;;4.43;4.00;;;33.20;91.40;;;;;;4983939;28;20941;-77
2022/06/16 11:28:10;;;;;;;6.73;3.47;;;33.10;92.30;;;;;;4991689;28;20441;-77
2022/06/16 11:30:47;;;;;;;8.13;3.60;;;32.60;91.90;;;;;;4995279;28;20783;-76
2022/06/16 11:34:06;;;;;;;5.13;3.00;;;32.50;92.60;;;;;;4988760;28;20481;-77
2022/06/16 11:37:00;;;;;;;3.23;3.03;;;32.40;91.50;;;;;;4994598;28;20447;-77
2022/06/16 11:39:42;;;;;;;4.77;3.10;;;32.40;92.80;;;;;;4994056;28;20490;-77
2022/06/16 11:42:28;;;;;;;3.67;3.37;;;32.30;92.30;;;;;;4975379;28;20817;-77
2022/06/16 11:44:59;;;;;;;3.70;3.40;;;32.00;92.70;;;;;;4985136;28;20434;-77
2022/06/16 11:47:37;;;;;;;4.80;3.33;;;32.20;92.40;;;;;;4995088;28;20399;-77
2022/06/16 11:50:16;;;;;;;3.40;3.20;;;32.00;92.00;;;;;;4976598;28;20430;-77
2022/06/16 11:53:15;;;;;;;6.33;3.97;;;32.00;91.80;;;;;;4974086;28;20471;-77
2022/06/16 11:55:54;;;;;;;3.10;2.80;;;32.00;91.60;;;;;;4979320;28;20439;-77
2022/06/16 11:58:33;;;;;;;6.70;4.00;;;31.50;91.60;;;;;;4993277;28;20446;-75
2022/06/16 12:01:10;;;;;;;8.87;4.17;;;31.30;91.90;;;;;;4973622;28;20475;-77
2022/06/16 12:03:41;;;;;;;7.63;3.23;;;31.40;92.60;;;;;;4977848;28;20473;-76
2022/06/16 12:06:35;;;;;;;4.03;3.43;;;31.40;91.40;;;;;;4982895;28;20470;-76
2022/06/16 12:09:33;;;;;;;5.90;3.10;;;31.50;91.80;;;;;;4968674;28;20448;-76
2022/06/16 12:12:39;;;;;;;5.93;3.60;;;31.60;91.40;;;;;;4994397;28;20818;-76
2022/06/16 12:15:26;;;;;;;3.50;2.90;;;31.60;91.90;;;;;;4932705;29;20482;-76
2022/06/16 12:18:15;;;;;;;5.47;3.17;;;31.50;91.80;;;;;;4990527;28;20425;-77
2022/06/16 12:20:57;;;;;;;4.23;3.67;;;31.50;92.20;;;;;;4980975;28;20525;-76
2022/06/16 12:23:36;;;;;;;6.60;3.07;;;31.50;92.70;;;;;;4974888;28;20434;-76
2022/06/16 12:26:27;;;;;;;4.93;3.53;;;31.30;91.10;;;;;;4981463;28;20861;-76
2022/06/16 12:29:15;;;;;;;3.73;3.43;;;31.30;91.70;;;;;;4994404;28;20522;-76
2022/06/16 12:32:10;;;;;;;4.40;3.50;;;31.30;90.80;;;;;;4991032;28;20457;-76
2022/06/16 12:34:57;;;;;;;4.40;4.00;;;31.40;91.40;;;;;;4991921;28;20438;-77
2022/06/16 12:37:29;;;;;;;4.67;3.30;;;31.20;91.10;;;;;;4993858;28;20501;-76
2022/06/16 12:40:12;;;;;;;3.90;3.43;;;31.00;91.00;;;;;;4988925;28;20434;-76
2022/06/16 12:42:42;;;;;;;6.20;3.20;;;31.00;91.70;;;;;;4977530;28;20482;-77
2022/06/16 12:45:18;;;;;;;3.30;2.90;;;31.00;92.50;;;;;;4976040;28;20410;-76
2022/06/16 12:47:51;;;;;;;7.33;3.60;;;30.90;91.60;;;;;;4986167;28;20442;-77
2022/06/16 12:50:24;;;;;;;5.30;3.40;;;30.80;91.70;;;;;;4994002;28;20991;-75
2022/06/16 12:52:57;;;;;;;3.33;3.13;;;30.70;91.50;;;;;;4991772;28;20472;-75
2022/06/16 12:55:29;;;;;;;4.57;3.70;;;30.70;91.20;;;;;;4991863;28;20423;-76
2022/06/16 12:58:01;;;;;;;5.10;3.50;;;30.60;92.50;;;;;;4974960;28;20804;-76
2022/06/16 13:00:33;;;;;;;2.90;2.60;;;30.50;91.60;;;;;;4974172;28;20502;-76
2022/06/16 13:03:20;;;;;;;4.20;3.60;;;30.50;91.60;;;;;;4992283;28;20497;-76
2022/06/16 13:05:46;;;;;;;3.70;3.33;;;30.40;90.90;;;;;;4993743;28;20497;-76
2022/06/16 13:08:14;;;;;;;5.93;3.70;;;30.30;91.30;;;;;;4985449;28;20538;-76
2022/06/16 13:10:43;;;;;;;5.20;3.40;;;30.30;91.80;;;;;;4974187;28;20445;-73
2022/06/16 13:13:10;;;;;;;4.07;3.13;;;30.40;90.70;;;;;;4989802;28;20465;-76
2022/06/16 13:15:43;;;;;;;3.47;2.93;;;30.30;89.60;;;;;;4994033;28;20763;-76
2022/06/16 13:18:16;;;;;;;5.63;4.13;;;30.30;90.10;;;;;;4987727;28;20448;-77
2022/06/16 13:21:01;;;;;;;3.17;2.87;;;30.30;90.30;;;;;;4973900;28;20969;-75
2022/06/16 13:23:33;;;;;;;4.73;2.43;;;30.40;89.50;;;;;;4987355;28;20525;-76
2022/06/16 13:26:25;;;;;;;2.50;2.40;;;30.30;87.00;;;;;;4991031;28;20522;-76
2022/06/16 13:29:00;;;;;;;3.70;2.63;;;30.20;86.70;;;;;;4979081;28;21022;-76
2022/06/16 13:31:47;;;;;;;4.13;3.30;;;30.30;89.30;;;;;;4973388;28;20459;-75
2022/06/16 13:34:17;;;;;;;2.70;2.50;;;30.30;88.80;;;;;;4980159;28;20473;-76
2022/06/16 13:36:45;;;;;;;2.93;2.67;;;30.20;89.60;;;;;;4988012;28;20525;-76
2022/06/16 13:39:50;;;;;;;2.77;2.53;;;30.20;88.00;;;;;;4989269;28;20517;-76
2022/06/16 13:42:40;;;;;;;3.33;2.63;;;30.10;85.20;;;;;;4987466;28;20442;-76
2022/06/16 13:45:12;;;;;;;4.00;3.23;;;30.00;87.00;;;;;;4990226;28;20436;-77
2022/06/16 13:48:11;;;;;;;5.47;2.80;;;29.70;88.40;;;;;;5008210;28;20418;-76
2022/06/16 13:51:02;;;;;;;3.17;2.87;;;29.90;90.00;;;;;;4985701;28;20440;-73
2022/06/16 13:53:31;;;;;;;4.63;3.63;;;29.80;89.10;;;;;;4985777;28;20906;-77
2022/06/16 13:56:27;;;;;;;4.43;3.30;;;29.70;90.00;;;;;;4991757;28;20418;-76
2022/06/16 13:58:52;;;;;;;7.60;4.03;;;29.60;89.50;;;;;;4989703;28;20431;-77
2022/06/16 14:01:27;;;;;;;10.60;3.77;;;29.60;90.50;;;;;;4978639;28;20498;-75
2022/06/16 14:03:58;;;;;;;3.97;3.60;;;29.50;89.90;;;;;;4973804;28;20179;-76
2022/06/16 14:06:58;;;;;;;5.87;4.10;;;29.50;90.40;;;;;;4973598;28;20454;-77
2022/06/16 14:09:35;;;;;;;4.50;3.10;;;29.60;90.90;;;;;;4974577;28;20465;-76
2022/06/16 14:12:04;;;;;;;3.10;2.90;;;29.60;91.70;;;;;;4974088;28;20502;-77
2022/06/16 14:14:55;;;;;;;3.53;3.33;;;29.60;89.60;;;;;;4976806;28;20453;-77
2022/06/16 14:17:34;;;;;;;4.20;3.50;;;29.50;91.60;;;;;;4993076;28;20411;-77
2022/06/16 14:20:11;;;;;;;9.13;3.83;;;29.60;91.80;;;;;;4992435;28;20469;-77
2022/06/16 14:22:42;;;;;;;4.30;3.90;;;29.50;91.20;;;;;;4990969;28;20465;-78
2022/06/16 14:25:13;;;;;;;6.20;3.80;;;29.60;91.40;;;;;;4986316;28;20800;-76
2022/06/16 14:27:54;;;;;;;4.27;3.87;;;29.60;91.30;;;;;;4973611;28;20955;-76
2022/06/16 14:30:24;;;;;;;3.90;3.70;;;29.60;91.50;;;;;;4977483;28;20466;-77
2022/06/16 14:33:05;;;;;;;5.23;3.70;;;29.50;91.30;;;;;;4992491;28;20482;-77
2022/06/16 14:35:36;;;;;;;4.30;3.37;;;29.50;91.90;;;;;;4989456;28;20442;-77
2022/06/16 14:38:22;;;;;;;7.20;3.73;;;29.40;92.40;;;;;;4992868;28;20442;-77
2022/06/16 14:40:52;;;;;;;4.37;3.97;;;29.20;92.00;;;;;;4986129;28;20857;-77
2022/06/16 14:43:25;;;;;;;6.40;3.80;;;29.20;92.00;;;;;;4973787;28;20490;-77
2022/06/16 14:45:59;;;;;;;5.13;3.87;;;29.10;91.00;;;;;;4983498;28;20442;-77
2022/06/16 14:48:27;;;;;;;6.80;3.73;;;29.10;91.00;;;;;;4995807;28;20402;-77
2022/06/16 14:50:57;;;;;;;3.53;3.33;;;29.20;91.10;;;;;;5006140;28;20419;-77
2022/06/16 14:53:37;;;;;;;8.43;3.60;;;29.30;91.00;;;;;;4992445;28;20472;-77
2022/06/16 14:56:16;;;;;;;5.50;3.70;;;29.30;90.20;;;;;;4996269;28;20950;-77
2022/06/16 14:58:49;;;;;;;3.37;2.97;;;29.20;90.30;;;;;;4996521;28;20394;-77
2022/06/16 15:01:22;;;;;;;4.80;3.43;;;29.20;90.30;;;;;;4995883;28;20480;-76